createdAt,value
2023-01-19T00:00:31.553Z,34.42
2023-01-19T00:01:34.710Z,36.25
2023-01-19T00:02:38.654Z,39.45
2023-01-19T00:03:42.369Z,35.28
2023-01-19T00:04:45.993Z,37.80
2023-01-19T00:05:49.312Z,40.60
2023-01-19T00:06:52.515Z,39.90
2023-01-19T00:07:55.723Z,40.60
2023-01-19T00:08:59.378Z,35.25
2023-01-19T00:10:02.516Z,32.65
2023-01-19T00:11:06.278Z,39.67
2023-01-19T00:12:09.479Z,35.65
2023-01-19T00:13:13.598Z,34.15
2023-01-19T00:14:16.666Z,34.30
2023-01-19T00:15:20.135Z,41.60
2023-01-19T00:16:23.411Z,33.53
2023-01-19T00:17:26.724Z,37.10
2023-01-19T00:18:29.998Z,39.10
2023-01-19T00:19:33.021Z,39.35
2023-01-19T00:20:36.136Z,39.78
2023-01-19T00:21:39.465Z,34.58
2023-01-19T00:22:42.625Z,33.25
2023-01-19T00:23:49.062Z,43.53
2023-01-19T00:24:52.187Z,33.78
2023-01-19T00:25:55.469Z,39.67
2023-01-19T00:26:58.636Z,37.72
2023-01-19T00:28:02.073Z,38.45
2023-01-19T00:29:06.871Z,38.17
2023-01-19T00:30:10.965Z,37.17
2023-01-19T00:31:14.151Z,45.17
2023-01-19T00:32:18.006Z,35.80
2023-01-19T00:33:21.092Z,37.47
2023-01-19T00:34:24.231Z,42.83
2023-01-19T00:35:27.437Z,38.38
2023-01-19T00:36:30.886Z,37.75
2023-01-19T00:37:34.242Z,38.15
2023-01-19T00:38:39.071Z,38.22
2023-01-19T00:39:43.072Z,36.03
2023-01-19T00:40:46.242Z,37.15
2023-01-19T00:42:08.196Z,37.28
2023-01-19T00:43:11.329Z,36.55
2023-01-19T00:44:14.546Z,39.65
2023-01-19T00:45:23.489Z,39.45
2023-01-19T00:46:27.202Z,41.60
2023-01-19T00:47:30.442Z,36.03
2023-01-19T00:48:33.534Z,39.33
2023-01-19T00:49:36.694Z,36.03
2023-01-19T00:50:39.874Z,38.20
2023-01-19T00:51:42.970Z,39.83
2023-01-19T00:52:46.492Z,37.28
2023-01-19T00:53:49.591Z,37.03
2023-01-19T00:54:52.656Z,39.55
2023-01-19T00:55:55.693Z,45.83
2023-01-19T00:56:58.845Z,38.63
2023-01-19T00:58:03.145Z,38.13
2023-01-19T00:59:06.286Z,44.92
2023-01-19T01:00:14.447Z,46.35
2023-01-19T01:01:17.719Z,38.60
2023-01-19T01:02:21.151Z,45.10
2023-01-19T01:03:27.990Z,38.45
2023-01-19T01:04:31.481Z,42.55
2023-01-19T01:05:34.631Z,41.25
2023-01-19T01:06:37.714Z,36.08
2023-01-19T01:07:41.923Z,44.40
2023-01-19T01:08:45.073Z,41.15
2023-01-19T01:09:48.257Z,39.92
2023-01-19T01:10:52.154Z,41.72
2023-01-19T01:11:55.288Z,38.92
2023-01-19T01:12:58.707Z,43.38
2023-01-19T01:14:02.160Z,44.08
2023-01-19T01:15:08.530Z,43.58
2023-01-19T01:16:11.932Z,43.05
2023-01-19T01:17:15.342Z,39.75
2023-01-19T01:18:18.751Z,43.22
2023-01-19T01:19:21.993Z,45.35
2023-01-19T01:20:28.667Z,42.35
2023-01-19T01:21:34.559Z,46.08
2023-01-19T01:22:39.222Z,45.67
2023-01-19T01:23:42.330Z,40.95
2023-01-19T01:24:45.432Z,41.63
2023-01-19T01:25:48.798Z,41.63
2023-01-19T01:26:54.580Z,42.25
2023-01-19T01:27:57.843Z,43.13
2023-01-19T01:29:01.403Z,40.15
2023-01-19T01:30:06.436Z,41.75
2023-01-19T01:31:09.708Z,38.80
2023-01-19T01:32:15.852Z,46.60
2023-01-19T01:33:40.435Z,40.78
2023-01-19T01:34:43.048Z,41.25
2023-01-19T01:35:46.274Z,38.80
2023-01-19T01:36:49.391Z,43.50
2023-01-19T01:37:52.487Z,42.13
2023-01-19T01:38:55.668Z,42.20
2023-01-19T01:39:58.779Z,44.40
2023-01-19T01:41:01.954Z,42.03
2023-01-19T01:42:18.024Z,39.78
2023-01-19T01:43:21.170Z,41.03
2023-01-19T01:44:52.598Z,42.90
2023-01-19T01:45:55.764Z,42.35
2023-01-19T01:46:59.698Z,45.17
2023-01-19T01:48:23.257Z,37.70
2023-01-19T01:49:26.554Z,44.17
2023-01-19T01:50:32.881Z,41.08
2023-01-19T01:51:48.375Z,48.97
2023-01-19T01:53:07.972Z,42.45
2023-01-19T01:54:25.449Z,45.08
2023-01-19T01:55:31.320Z,44.70
2023-01-19T01:56:50.067Z,44.45
2023-01-19T01:57:59.088Z,39.58
2023-01-19T01:59:07.677Z,46.13
2023-01-19T02:00:12.562Z,41.80
2023-01-19T02:01:34.463Z,41.38
2023-01-19T02:02:55.128Z,42.35
2023-01-19T02:03:59.599Z,44.50
2023-01-19T02:05:16.420Z,44.00
2023-01-19T02:06:21.634Z,44.45
2023-01-19T02:08:24.574Z,43.58
2023-01-19T02:09:49.854Z,43.22
2023-01-19T02:11:12.890Z,45.30
2023-01-19T02:12:35.147Z,41.63
2023-01-19T02:13:43.837Z,43.25
2023-01-19T02:14:47.344Z,41.47
2023-01-19T02:15:57.815Z,46.10
2023-01-19T02:17:01.299Z,41.80
2023-01-19T02:18:04.701Z,45.85
2023-01-19T02:19:12.559Z,45.88
2023-01-19T02:20:16.335Z,41.97
2023-01-19T02:21:32.047Z,36.97
2023-01-19T02:22:47.544Z,40.88
2023-01-19T02:23:54.505Z,38.85
2023-01-19T02:24:58.903Z,43.63
2023-01-19T02:26:03.361Z,42.65
2023-01-19T02:27:09.026Z,43.72
2023-01-19T02:28:13.141Z,40.17
2023-01-19T02:29:20.956Z,42.92
2023-01-19T02:30:24.415Z,37.35
2023-01-19T02:31:30.451Z,40.30
2023-01-19T02:32:33.598Z,36.95
2023-01-19T02:33:37.516Z,39.88
2023-01-19T02:34:40.727Z,36.28
2023-01-19T02:35:45.901Z,39.67
2023-01-19T02:37:11.963Z,38.88
2023-01-19T02:38:17.732Z,44.35
2023-01-19T02:39:34.498Z,38.10
2023-01-19T02:40:41.940Z,41.45
2023-01-19T02:41:53.548Z,33.78
2023-01-19T02:43:01.076Z,40.00
2023-01-19T02:44:06.596Z,36.10
2023-01-19T02:45:12.798Z,36.40
2023-01-19T02:46:16.565Z,42.03
2023-01-19T02:47:19.924Z,32.03
2023-01-19T02:48:23.281Z,39.85
2023-01-19T02:49:30.126Z,37.13
2023-01-19T02:50:38.359Z,42.13
2023-01-19T02:51:44.639Z,39.95
2023-01-19T02:52:49.275Z,36.65
2023-01-19T02:54:22.358Z,39.33
2023-01-19T02:55:30.114Z,37.63
2023-01-19T02:57:11.295Z,35.75
2023-01-19T03:00:23.380Z,35.55
2023-01-19T03:02:22.655Z,40.78
2023-01-19T03:03:25.770Z,38.95
2023-01-19T03:05:34.837Z,37.30
2023-01-19T03:07:07.812Z,35.08
2023-01-19T03:08:34.387Z,39.10
2023-01-19T03:09:53.588Z,36.28
2023-01-19T03:11:10.507Z,39.45
2023-01-19T03:12:53.601Z,38.70
2023-01-19T03:14:10.468Z,37.30
2023-01-19T03:15:48.824Z,38.70
2023-01-19T03:16:57.657Z,40.28
2023-01-19T03:18:03.963Z,38.33
2023-01-19T03:19:19.751Z,41.97
2023-01-19T03:20:25.515Z,38.97
2023-01-19T03:21:30.585Z,38.42
2023-01-19T03:22:35.076Z,38.17
2023-01-19T03:23:41.608Z,35.38
2023-01-19T03:24:48.227Z,41.10
2023-01-19T03:25:53.423Z,38.63
2023-01-19T03:27:04.205Z,39.78
2023-01-19T03:29:14.423Z,35.80
2023-01-19T03:30:32.208Z,41.33
2023-01-19T03:31:37.057Z,39.92
2023-01-19T03:32:54.873Z,40.00
2023-01-19T03:34:06.676Z,38.25
2023-01-19T03:35:16.745Z,36.03
2023-01-19T03:36:54.101Z,39.30
2023-01-19T03:38:01.125Z,38.25
2023-01-19T03:39:07.976Z,38.63
2023-01-19T03:40:12.314Z,41.42
2023-01-19T03:41:19.287Z,41.05
2023-01-19T03:42:24.768Z,44.22
2023-01-19T03:43:31.549Z,43.10
2023-01-19T03:44:37.560Z,37.88
2023-01-19T03:45:41.392Z,43.75
2023-01-19T03:46:48.050Z,39.13
2023-01-19T03:47:52.155Z,40.65
2023-01-19T03:48:55.345Z,37.15
2023-01-19T03:50:02.272Z,40.97
2023-01-19T03:51:09.034Z,40.05
2023-01-19T03:52:12.986Z,47.58
2023-01-19T03:53:17.432Z,43.60
2023-01-19T03:54:20.673Z,42.10
2023-01-19T03:55:23.847Z,41.60
2023-01-19T03:56:27.082Z,46.72
2023-01-19T03:57:30.592Z,39.33
2023-01-19T03:58:33.813Z,41.95
2023-01-19T03:59:37.077Z,43.13
2023-01-19T04:00:40.710Z,48.08
2023-01-19T04:01:44.227Z,45.38
2023-01-19T04:02:47.651Z,41.20
2023-01-19T04:03:51.987Z,46.80
2023-01-19T04:04:55.089Z,48.00
2023-01-19T04:05:58.191Z,41.75
2023-01-19T04:07:01.511Z,51.22
2023-01-19T04:08:04.778Z,43.55
2023-01-19T04:09:08.355Z,45.10
2023-01-19T04:10:12.859Z,50.90
2023-01-19T04:11:16.607Z,43.65
2023-01-19T04:12:19.674Z,41.10
2023-01-19T04:13:22.981Z,45.35
2023-01-19T04:14:26.092Z,44.13
2023-01-19T04:15:30.001Z,45.55
2023-01-19T04:16:33.212Z,43.38
2023-01-19T04:17:36.494Z,46.25
2023-01-19T04:18:40.984Z,48.47
2023-01-19T04:19:45.275Z,43.35
2023-01-19T04:20:48.370Z,49.30
2023-01-19T04:21:52.040Z,44.03
2023-01-19T04:23:00.141Z,41.90
2023-01-19T04:24:03.572Z,43.22
2023-01-19T04:25:07.962Z,48.28
2023-01-19T04:26:11.150Z,45.58
2023-01-19T04:27:16.409Z,47.78
2023-01-19T04:28:19.523Z,45.20
2023-01-19T04:29:22.699Z,49.35
2023-01-19T04:30:27.419Z,41.92
2023-01-19T04:31:31.636Z,43.08
2023-01-19T04:32:34.836Z,46.97
2023-01-19T04:33:38.083Z,42.45
2023-01-19T04:34:41.159Z,44.10
2023-01-19T04:35:46.662Z,46.67
2023-01-19T04:36:51.467Z,42.60
2023-01-19T04:37:54.801Z,43.97
2023-01-19T04:38:58.070Z,44.40
2023-01-19T04:40:01.187Z,45.35
2023-01-19T04:41:04.484Z,41.20
2023-01-19T04:42:07.860Z,43.45
2023-01-19T04:43:11.005Z,41.15
2023-01-19T04:44:14.676Z,47.20
2023-01-19T04:45:18.108Z,41.63
2023-01-19T04:46:21.335Z,40.30
2023-01-19T04:47:24.906Z,44.97
2023-01-19T04:48:28.080Z,42.40
2023-01-19T04:49:31.266Z,44.90
2023-01-19T04:50:34.359Z,45.60
2023-01-19T04:51:37.643Z,50.22
2023-01-19T04:52:41.012Z,51.78
2023-01-19T04:53:44.220Z,49.67
2023-01-19T04:54:47.749Z,49.05
2023-01-19T04:55:55.449Z,49.97
2023-01-19T04:56:58.700Z,46.50
2023-01-19T04:58:01.866Z,46.25
2023-01-19T04:59:05.002Z,43.97
2023-01-19T05:00:09.777Z,42.83
2023-01-19T05:01:13.564Z,46.92
2023-01-19T05:02:17.699Z,47.47
2023-01-19T05:03:21.037Z,45.40
2023-01-19T05:04:25.707Z,51.60
2023-01-19T05:05:29.224Z,50.22
2023-01-19T05:06:33.021Z,44.25
2023-01-19T05:07:36.489Z,46.15
2023-01-19T05:08:39.933Z,53.97
2023-01-19T05:09:43.007Z,50.80
2023-01-19T05:10:46.267Z,47.10
2023-01-19T05:11:49.456Z,56.30
2023-01-19T05:12:52.674Z,51.45
2023-01-19T05:13:55.847Z,48.00
2023-01-19T05:14:59.280Z,48.80
2023-01-19T05:16:02.785Z,51.35
2023-01-19T05:17:06.086Z,47.33
2023-01-19T05:18:09.263Z,45.80
2023-01-19T05:19:13.507Z,44.40
2023-01-19T05:20:17.502Z,52.67
2023-01-19T05:21:20.731Z,44.35
2023-01-19T05:22:24.683Z,47.78
2023-01-19T05:23:28.010Z,54.67
2023-01-19T05:24:32.005Z,50.90
2023-01-19T05:25:35.216Z,48.75
2023-01-19T05:26:38.484Z,45.67
2023-01-19T05:27:41.535Z,55.83
2023-01-19T05:28:44.618Z,54.00
2023-01-19T05:29:47.948Z,49.50
2023-01-19T05:30:51.060Z,49.08
2023-01-19T05:31:54.290Z,45.95
2023-01-19T05:32:57.417Z,50.33
2023-01-19T05:34:00.602Z,52.63
2023-01-19T05:35:04.013Z,50.13
2023-01-19T05:36:07.399Z,55.50
2023-01-19T05:37:11.051Z,51.80
2023-01-19T05:38:15.637Z,54.00
2023-01-19T05:39:20.480Z,49.42
2023-01-19T05:40:23.615Z,51.28
2023-01-19T05:41:26.693Z,44.40
2023-01-19T05:42:31.996Z,47.17
2023-01-19T05:43:35.866Z,49.55
2023-01-19T05:44:39.011Z,51.20
2023-01-19T05:45:42.391Z,48.30
2023-01-19T05:46:45.801Z,51.28
2023-01-19T05:47:48.948Z,52.30
2023-01-19T05:48:52.035Z,54.78
2023-01-19T05:49:55.221Z,59.00
2023-01-19T05:50:59.859Z,49.42
2023-01-19T05:52:03.011Z,46.13
2023-01-19T05:53:06.310Z,40.95
2023-01-19T05:54:10.036Z,48.78
2023-01-19T05:55:14.980Z,44.50
2023-01-19T05:56:18.611Z,50.30
2023-01-19T05:57:22.647Z,52.90
2023-01-19T05:58:25.800Z,47.70
2023-01-19T05:59:29.150Z,46.85
2023-01-19T06:00:32.357Z,48.83
2023-01-19T06:01:38.955Z,48.30
2023-01-19T06:02:43.799Z,52.85
2023-01-19T06:03:47.379Z,50.75
2023-01-19T06:04:50.529Z,49.65
2023-01-19T06:05:53.654Z,43.97
2023-01-19T06:06:56.746Z,49.55
2023-01-19T06:08:00.136Z,45.88
2023-01-19T06:09:03.210Z,53.08
2023-01-19T06:10:07.276Z,52.58
2023-01-19T06:11:10.657Z,47.28
2023-01-19T06:12:14.527Z,47.65
2023-01-19T06:13:17.976Z,53.08
2023-01-19T06:14:21.305Z,44.10
2023-01-19T06:15:24.407Z,51.72
2023-01-19T06:16:27.767Z,47.20
2023-01-19T06:17:33.624Z,45.00
2023-01-19T06:18:37.167Z,43.97
2023-01-19T06:19:40.939Z,46.80
2023-01-19T06:20:43.992Z,43.25
2023-01-19T06:21:52.213Z,48.05
2023-01-19T06:22:58.029Z,46.75
2023-01-19T06:24:01.333Z,47.00
2023-01-19T06:25:04.820Z,47.50
2023-01-19T06:26:08.427Z,45.08
2023-01-19T06:27:11.741Z,47.10
2023-01-19T06:28:14.896Z,51.38
2023-01-19T06:29:18.459Z,48.50
2023-01-19T06:30:22.353Z,45.70
2023-01-19T06:31:25.553Z,43.75
2023-01-19T06:32:28.819Z,42.05
2023-01-19T06:33:32.003Z,47.78
2023-01-19T06:34:35.152Z,46.35
2023-01-19T06:35:38.300Z,43.85
2023-01-19T06:36:41.746Z,47.72
2023-01-19T06:37:44.887Z,47.40
2023-01-19T06:38:48.012Z,42.05
2023-01-19T06:39:51.203Z,48.78
2023-01-19T06:40:58.961Z,53.60
2023-01-19T06:42:02.014Z,49.50
2023-01-19T06:43:05.072Z,47.92
2023-01-19T06:44:08.263Z,44.72
2023-01-19T06:45:11.806Z,43.78
2023-01-19T06:46:14.992Z,47.33
2023-01-19T06:47:18.638Z,44.72
2023-01-19T06:48:22.249Z,42.97
2023-01-19T06:49:25.352Z,42.15
2023-01-19T06:50:28.732Z,43.78
2023-01-19T06:51:31.846Z,48.47
2023-01-19T06:52:42.220Z,47.63
2023-01-19T06:53:45.637Z,43.63
2023-01-19T06:54:48.755Z,48.90
2023-01-19T06:55:53.013Z,48.70
2023-01-19T06:56:56.456Z,48.92
2023-01-19T06:58:00.017Z,46.85
2023-01-19T06:59:03.309Z,46.63
2023-01-19T07:00:09.076Z,48.67
2023-01-19T07:01:12.394Z,47.03
2023-01-19T07:02:27.257Z,48.10
2023-01-19T07:03:32.189Z,48.05
2023-01-19T07:04:35.240Z,47.95
2023-01-19T07:05:38.365Z,49.90
2023-01-19T07:06:41.924Z,44.78
2023-01-19T07:07:45.654Z,50.83
2023-01-19T07:08:48.702Z,45.40
2023-01-19T07:09:53.821Z,46.22
2023-01-19T07:11:24.892Z,47.03
2023-01-19T07:12:32.945Z,41.20
2023-01-19T07:13:38.180Z,48.50
2023-01-19T07:14:41.739Z,43.05
2023-01-19T07:15:44.841Z,42.95
2023-01-19T07:16:47.971Z,43.05
2023-01-19T07:17:51.219Z,40.25
2023-01-19T07:18:54.394Z,45.70
2023-01-19T07:19:57.477Z,43.03
2023-01-19T07:21:00.854Z,46.17
2023-01-19T07:22:04.194Z,39.13
2023-01-19T07:23:07.426Z,37.90
2023-01-19T07:24:10.751Z,44.72
2023-01-19T07:25:15.053Z,43.38
2023-01-19T07:26:21.855Z,45.20
2023-01-19T07:27:28.073Z,47.63
2023-01-19T07:28:32.916Z,44.22
2023-01-19T07:29:36.038Z,44.20
2023-01-19T07:30:39.142Z,43.25
2023-01-19T07:31:42.405Z,40.35
2023-01-19T07:32:45.652Z,40.55
2023-01-19T07:33:48.874Z,47.92
2023-01-19T07:34:51.963Z,45.67
2023-01-19T07:35:55.389Z,42.78
2023-01-19T07:36:58.651Z,41.28
2023-01-19T07:38:01.751Z,43.75
2023-01-19T07:39:04.953Z,47.75
2023-01-19T07:40:09.158Z,45.03
2023-01-19T07:41:12.459Z,49.15
2023-01-19T07:42:15.878Z,47.05
2023-01-19T07:43:19.570Z,51.20
2023-01-19T07:44:25.306Z,45.25
2023-01-19T07:45:28.439Z,46.35
2023-01-19T07:46:31.761Z,46.00
2023-01-19T07:47:34.846Z,48.55
2023-01-19T07:48:37.930Z,50.35
2023-01-19T07:49:41.323Z,42.70
2023-01-19T07:50:44.831Z,49.17
2023-01-19T07:51:47.934Z,47.17
2023-01-19T07:52:53.625Z,44.47
2023-01-19T07:53:56.739Z,50.03
2023-01-19T07:55:00.016Z,44.63
2023-01-19T07:56:03.262Z,51.10
2023-01-19T07:57:06.404Z,47.65
2023-01-19T07:58:09.525Z,47.17
2023-01-19T07:59:12.815Z,43.15
2023-01-19T08:00:18.760Z,47.95
2023-01-19T08:01:22.152Z,48.13
2023-01-19T08:02:26.032Z,45.20
2023-01-19T08:03:29.158Z,45.88
2023-01-19T08:04:32.512Z,49.22
2023-01-19T08:05:35.787Z,46.80
2023-01-19T08:06:40.473Z,45.30
2023-01-19T08:07:45.378Z,52.08
2023-01-19T08:08:49.069Z,46.08
2023-01-19T08:09:52.331Z,37.60
2023-01-19T08:10:55.394Z,48.03
2023-01-19T08:11:58.529Z,45.17
2023-01-19T08:13:02.063Z,46.60
2023-01-19T08:14:07.803Z,43.70
2023-01-19T08:15:11.797Z,42.58
2023-01-19T08:16:15.056Z,40.92
2023-01-19T08:17:18.122Z,45.65
2023-01-19T08:18:21.677Z,44.22
2023-01-19T08:19:24.897Z,41.47
2023-01-19T08:20:29.636Z,42.58
2023-01-19T08:21:33.475Z,40.55
2023-01-19T08:22:37.256Z,44.70
2023-01-19T08:23:40.465Z,46.08
2023-01-19T08:24:43.662Z,39.83
2023-01-19T08:25:47.242Z,39.53
2023-01-19T08:26:50.592Z,43.85
2023-01-19T08:27:56.849Z,42.13
2023-01-19T08:29:04.298Z,42.08
2023-01-19T08:30:08.422Z,40.50
2023-01-19T08:31:20.919Z,39.38
2023-01-19T08:32:25.720Z,43.22
2023-01-19T08:33:28.944Z,47.35
2023-01-19T08:34:32.443Z,41.92
2023-01-19T08:35:41.896Z,39.63
2023-01-19T08:36:44.959Z,37.03
2023-01-19T08:37:48.322Z,38.60
2023-01-19T08:38:51.872Z,44.97
2023-01-19T08:39:54.959Z,36.88
2023-01-19T08:40:58.205Z,37.65
2023-01-19T08:42:01.274Z,37.17
2023-01-19T08:43:08.305Z,39.83
2023-01-19T08:44:11.429Z,38.22
2023-01-19T08:45:14.632Z,37.25
2023-01-19T08:46:20.913Z,38.42
2023-01-19T08:47:24.130Z,33.78
2023-01-19T08:48:27.319Z,37.70
2023-01-19T08:49:30.531Z,32.75
2023-01-19T08:50:34.542Z,42.72
2023-01-19T08:51:38.291Z,37.67
2023-01-19T08:52:41.417Z,38.03
2023-01-19T08:53:44.642Z,38.28
2023-01-19T08:54:47.844Z,35.97
2023-01-19T08:55:57.499Z,38.47
2023-01-19T08:57:00.622Z,37.28
2023-01-19T08:58:05.572Z,42.08
2023-01-19T08:59:11.328Z,32.63
2023-01-19T09:00:16.272Z,36.35
2023-01-19T09:01:20.611Z,36.35
2023-01-19T09:02:23.855Z,39.60
2023-01-19T09:03:27.258Z,38.97
2023-01-19T09:04:30.440Z,35.53
2023-01-19T09:05:37.446Z,33.47
2023-01-19T09:06:40.757Z,35.50
2023-01-19T09:07:48.295Z,34.25
2023-01-19T09:08:51.511Z,40.47
2023-01-19T09:09:54.753Z,36.20
2023-01-19T09:10:58.008Z,34.08
2023-01-19T09:12:01.215Z,33.70
2023-01-19T09:13:07.188Z,35.33
2023-01-19T09:14:10.420Z,37.00
2023-01-19T09:15:14.117Z,38.78
2023-01-19T09:16:17.596Z,38.05
2023-01-19T09:17:20.774Z,36.38
2023-01-19T09:18:23.970Z,32.08
2023-01-19T09:19:27.117Z,33.30
2023-01-19T09:20:31.348Z,36.47
2023-01-19T09:21:34.528Z,32.42
2023-01-19T09:22:39.748Z,31.70
2023-01-19T09:23:43.034Z,32.97
2023-01-19T09:24:46.252Z,36.08
2023-01-19T09:25:55.953Z,31.73
2023-01-19T09:26:59.126Z,31.20
2023-01-19T09:28:02.952Z,34.38
2023-01-19T09:29:06.471Z,28.40
2023-01-19T09:30:11.547Z,33.63
2023-01-19T09:31:15.238Z,35.17
2023-01-19T09:32:20.036Z,29.10
2023-01-19T09:33:24.703Z,30.88
2023-01-19T09:34:27.893Z,31.00
2023-01-19T09:35:31.604Z,30.73
2023-01-19T09:36:36.652Z,31.65
2023-01-19T09:37:39.713Z,31.48
2023-01-19T09:38:43.843Z,28.15
2023-01-19T09:39:47.004Z,29.70
2023-01-19T09:40:56.663Z,32.22
2023-01-19T09:42:30.452Z,29.23
2023-01-19T09:43:45.455Z,30.17
2023-01-19T09:44:50.639Z,29.52
2023-01-19T09:45:57.046Z,28.25
2023-01-19T09:47:04.841Z,30.15
2023-01-19T09:48:46.961Z,29.27
2023-01-19T09:50:10.571Z,31.92
2023-01-19T09:51:24.228Z,26.75
2023-01-19T09:52:27.524Z,29.13
2023-01-19T09:53:59.190Z,30.10
2023-01-19T09:55:02.373Z,29.88
2023-01-19T09:56:09.301Z,27.17
2023-01-19T09:57:13.584Z,30.38
2023-01-19T09:58:19.250Z,26.90
2023-01-19T09:59:41.599Z,31.25
2023-01-19T10:00:53.170Z,30.05
2023-01-19T10:02:21.700Z,29.10
2023-01-19T10:03:24.994Z,28.42
2023-01-19T10:04:41.478Z,31.17
2023-01-19T10:06:03.591Z,30.55
2023-01-19T10:07:39.860Z,28.52
2023-01-19T10:08:58.036Z,29.75
2023-01-19T10:10:27.127Z,28.45
2023-01-19T10:11:52.748Z,25.77
2023-01-19T10:13:26.498Z,31.15
2023-01-19T10:14:45.975Z,28.23
2023-01-19T10:15:59.415Z,25.13
2023-01-19T10:17:53.412Z,27.85
2023-01-19T10:19:21.007Z,27.92
2023-01-19T10:20:36.822Z,29.10
2023-01-19T10:21:45.308Z,28.15
2023-01-19T10:22:50.864Z,27.45
2023-01-19T10:24:18.582Z,27.42
2023-01-19T10:25:25.287Z,24.98
2023-01-19T10:26:43.152Z,28.90
2023-01-19T10:27:47.434Z,24.60
2023-01-19T10:28:57.753Z,29.77
2023-01-19T10:30:02.229Z,27.50
2023-01-19T10:31:07.731Z,28.58
2023-01-19T10:32:26.173Z,28.77
2023-01-19T10:33:29.612Z,29.63
2023-01-19T10:34:32.661Z,30.05
2023-01-19T10:35:36.366Z,28.85
2023-01-19T10:36:41.056Z,31.15
2023-01-19T10:37:44.851Z,28.08
2023-01-19T10:38:48.572Z,28.63
2023-01-19T10:40:19.944Z,25.88
2023-01-19T10:41:52.862Z,26.60
2023-01-19T10:42:57.990Z,27.65
2023-01-19T10:44:05.915Z,27.27
2023-01-19T10:45:27.224Z,26.05
2023-01-19T10:46:44.111Z,29.77
2023-01-19T10:47:49.442Z,23.70
2023-01-19T10:48:54.197Z,28.30
2023-01-19T10:49:57.455Z,26.98
2023-01-19T10:51:06.159Z,24.23
2023-01-19T10:52:37.317Z,22.85
2023-01-19T10:54:48.622Z,25.42
2023-01-19T10:56:22.669Z,29.65
2023-01-19T10:57:40.748Z,23.65
2023-01-19T10:58:44.087Z,26.20
2023-01-19T10:59:51.162Z,22.50
2023-01-19T11:00:54.725Z,23.10
2023-01-19T11:02:22.329Z,28.02
2023-01-19T11:03:30.678Z,22.83
2023-01-19T11:04:33.963Z,28.52
2023-01-19T11:05:37.269Z,24.17
2023-01-19T11:06:40.662Z,23.83
2023-01-19T11:07:44.199Z,22.70
2023-01-19T11:08:52.716Z,24.45
2023-01-19T11:10:17.678Z,26.17
2023-01-19T11:11:23.619Z,26.65
2023-01-19T11:12:26.848Z,20.48
2023-01-19T11:13:30.657Z,29.15
2023-01-19T11:14:33.889Z,24.77
2023-01-19T11:15:50.998Z,22.90
2023-01-19T11:16:57.816Z,26.05
2023-01-19T11:18:05.249Z,22.63
2023-01-19T11:19:32.022Z,25.33
2023-01-19T11:20:56.288Z,21.42
2023-01-19T11:22:27.570Z,26.13
2023-01-19T11:23:43.897Z,26.02
2023-01-19T11:24:47.493Z,23.52
2023-01-19T11:25:52.780Z,23.05
2023-01-19T11:27:03.654Z,23.35
2023-01-19T11:28:15.540Z,21.33
2023-01-19T11:29:27.757Z,23.40
2023-01-19T11:30:31.889Z,26.90
2023-01-19T11:31:36.295Z,28.42
2023-01-19T11:32:39.518Z,21.60
2023-01-19T11:33:45.516Z,22.95
2023-01-19T11:34:49.701Z,27.02
2023-01-19T11:36:21.256Z,23.27
2023-01-19T11:37:33.181Z,25.02
2023-01-19T11:38:43.685Z,24.25
2023-01-19T11:39:59.436Z,22.65
2023-01-19T11:41:06.692Z,26.88
2023-01-19T11:42:12.805Z,25.05
2023-01-19T11:43:16.116Z,23.63
2023-01-19T11:44:39.205Z,21.77
2023-01-19T11:45:43.238Z,20.27
2023-01-19T11:46:53.624Z,24.80
2023-01-19T11:47:57.366Z,20.75
2023-01-19T11:49:15.491Z,21.83
2023-01-19T11:50:58.661Z,24.45
2023-01-19T11:52:26.109Z,25.77
2023-01-19T11:53:34.551Z,23.10
2023-01-19T11:55:00.521Z,23.60
2023-01-19T11:56:14.784Z,19.05
2023-01-19T11:57:18.168Z,20.13
2023-01-19T11:58:21.514Z,26.50
2023-01-19T11:59:25.236Z,25.75
2023-01-19T12:00:48.687Z,27.25
2023-01-19T12:02:00.343Z,26.33
2023-01-19T12:03:31.361Z,27.25
2023-01-19T12:04:40.216Z,23.65
2023-01-19T12:05:49.987Z,23.40
2023-01-19T12:06:58.022Z,26.13
2023-01-19T12:08:07.798Z,26.02
2023-01-19T12:09:34.344Z,20.13
2023-01-19T12:10:43.628Z,25.23
2023-01-19T12:11:50.388Z,29.60
2023-01-19T12:12:54.644Z,26.98
2023-01-19T12:13:58.034Z,29.52
2023-01-19T12:15:24.912Z,27.75
2023-01-19T12:16:33.012Z,26.50
2023-01-19T12:17:45.529Z,29.73
2023-01-19T12:19:16.293Z,30.85
2023-01-19T12:20:35.290Z,26.77
2023-01-19T12:21:38.866Z,28.77
2023-01-19T12:22:50.804Z,30.88
2023-01-19T12:24:18.603Z,29.60
2023-01-19T12:25:31.189Z,31.73
2023-01-19T12:26:57.901Z,27.73
2023-01-19T12:28:02.285Z,31.02
2023-01-19T12:29:19.937Z,29.05
2023-01-19T12:30:28.009Z,30.98
2023-01-19T12:31:31.483Z,28.63
2023-01-19T12:32:37.001Z,34.33
2023-01-19T12:33:41.471Z,29.25
2023-01-19T12:34:50.228Z,29.52
2023-01-19T12:36:26.993Z,29.92
2023-01-19T12:37:41.569Z,31.27
2023-01-19T12:38:55.983Z,35.78
2023-01-19T12:40:05.583Z,31.10
2023-01-19T12:41:32.402Z,34.88
2023-01-19T12:42:35.571Z,33.80
2023-01-19T12:43:38.673Z,33.58
2023-01-19T12:44:43.671Z,33.13
2023-01-19T12:45:48.346Z,33.70
2023-01-19T12:47:20.474Z,35.60
2023-01-19T12:48:26.473Z,33.30
2023-01-19T12:49:38.110Z,34.40
2023-01-19T12:50:46.665Z,31.25
2023-01-19T12:51:53.696Z,33.22
2023-01-19T12:53:02.795Z,34.45
2023-01-19T12:54:19.383Z,32.00
2023-01-19T12:55:39.036Z,29.73
2023-01-19T12:56:42.315Z,33.03
2023-01-19T12:57:59.420Z,31.33
2023-01-19T12:59:04.243Z,31.35
2023-01-19T13:00:22.738Z,34.85
2023-01-19T13:01:28.308Z,31.67
2023-01-19T13:02:42.845Z,31.25
2023-01-19T13:04:26.163Z,33.40
2023-01-19T13:05:33.236Z,33.63
2023-01-19T13:06:48.582Z,35.45
2023-01-19T13:08:06.903Z,32.63
2023-01-19T13:09:33.760Z,32.75
2023-01-19T13:11:10.677Z,31.42
2023-01-19T13:12:25.811Z,35.55
2023-01-19T13:13:50.627Z,32.75
2023-01-19T13:15:35.481Z,33.17
2023-01-19T13:16:38.593Z,32.35
2023-01-19T13:17:54.326Z,35.42
2023-01-19T13:19:16.339Z,35.75
2023-01-19T13:20:42.093Z,36.88
2023-01-19T13:21:48.443Z,33.47
2023-01-19T13:23:22.529Z,30.83
2023-01-19T13:24:45.703Z,32.08
2023-01-19T13:26:14.406Z,34.90
2023-01-19T13:27:17.631Z,35.08
2023-01-19T13:28:32.042Z,34.50
2023-01-19T13:29:43.197Z,28.15
2023-01-19T13:30:59.613Z,24.33
2023-01-19T13:32:17.607Z,30.17
2023-01-19T13:33:26.847Z,35.38
2023-01-19T13:34:41.598Z,32.47
2023-01-19T13:35:58.753Z,31.55
2023-01-19T13:37:03.217Z,34.65
2023-01-19T13:38:07.935Z,31.77
2023-01-19T13:39:44.245Z,28.63
2023-01-19T13:40:47.657Z,32.90
2023-01-19T13:41:56.228Z,29.83
2023-01-19T13:42:59.606Z,34.35
2023-01-19T13:44:09.962Z,28.60
2023-01-19T13:45:33.358Z,28.98
2023-01-19T13:46:38.724Z,34.17
2023-01-19T13:47:49.208Z,30.00
2023-01-19T13:49:09.921Z,30.58
2023-01-19T13:50:43.419Z,31.55
2023-01-19T13:51:49.516Z,36.45
2023-01-19T13:52:55.674Z,32.95
2023-01-19T13:54:03.375Z,36.08
2023-01-19T13:55:14.102Z,34.40
2023-01-19T13:56:22.068Z,43.58
2023-01-19T13:57:43.661Z,39.42
2023-01-19T13:59:16.259Z,37.35
2023-01-19T14:00:29.060Z,49.17
2023-01-19T14:01:33.102Z,50.40
2023-01-19T14:02:36.877Z,37.75
2023-01-19T14:03:41.164Z,40.38
2023-01-19T14:04:44.358Z,38.60
2023-01-19T14:05:54.691Z,32.92
2023-01-19T14:07:23.484Z,39.33
2023-01-19T14:08:26.851Z,38.72
2023-01-19T14:09:30.078Z,41.80
2023-01-19T14:10:35.633Z,37.17
2023-01-19T14:11:39.008Z,33.53
2023-01-19T14:12:58.130Z,36.35
2023-01-19T14:14:02.870Z,34.17
2023-01-19T14:15:14.265Z,32.45
2023-01-19T14:16:18.275Z,34.95
2023-01-19T14:17:30.693Z,33.78
2023-01-19T14:18:36.349Z,30.98
2023-01-19T14:19:57.737Z,31.70
2023-01-19T14:21:06.091Z,36.22
2023-01-19T14:22:09.255Z,37.30
2023-01-19T14:23:39.986Z,34.33
2023-01-19T14:24:43.199Z,30.48
2023-01-19T14:25:46.378Z,34.72
2023-01-19T14:26:54.908Z,31.58
2023-01-19T14:28:39.309Z,32.97
2023-01-19T14:29:43.889Z,34.03
2023-01-19T14:31:17.522Z,29.17
2023-01-19T14:32:23.543Z,36.42
2023-01-19T14:33:46.211Z,34.80
2023-01-19T14:35:06.067Z,33.63
2023-01-19T14:36:33.366Z,30.00
2023-01-19T14:37:51.244Z,32.58
2023-01-19T14:38:58.131Z,36.83
2023-01-19T14:40:12.894Z,39.95
2023-01-19T14:41:40.089Z,29.00
2023-01-19T14:42:48.420Z,32.40
2023-01-19T14:43:51.717Z,34.92